sensor_id;sensor_type;location;lat;lon;timestamp;temperature;humidity
43143;DHT22;28750;59.842;17.584;2023-03-04T00:00:07;-0.10;1.00
43143;DHT22;28750;59.842;17.584;2023-03-04T00:02:34;-0.20;1.00
43143;DHT22;28750;59.842;17.584;2023-03-04T00:05:01;-0.30;1.00
43143;DHT22;28750;59.842;17.584;2023-03-04T00:07:29;-0.20;1.00
43143;DHT22;28750;59.842;17.584;2023-03-04T00:09:56;-0.20;1.00
43143;DHT22;28750;59.842;17.584;2023-03-04T00:12:23;-0.20;1.00
43143;DHT22;28750;59.842;17.584;2023-03-04T00:14:50;-0.30;1.00
43143;DHT22;28750;59.842;17.584;2023-03-04T00:17:17;-0.20;1.00
43143;DHT22;28750;59.842;17.584;2023-03-04T00:19:44;-0.30;1.00
43143;DHT22;28750;59.842;17.584;2023-03-04T00:22:10;-0.30;1.00
43143;DHT22;28750;59.842;17.584;2023-03-04T00:24:37;-0.30;1.00
43143;DHT22;28750;59.842;17.584;2023-03-04T00:27:04;-0.30;1.00
43143;DHT22;28750;59.842;17.584;2023-03-04T00:29:31;-0.30;1.00
43143;DHT22;28750;59.842;17.584;2023-03-04T00:31:58;-0.30;1.00
43143;DHT22;28750;59.842;17.584;2023-03-04T00:34:25;-0.40;1.00
43143;DHT22;28750;59.842;17.584;2023-03-04T00:36:52;-0.50;1.00
43143;DHT22;28750;59.842;17.584;2023-03-04T00:39:19;-0.50;1.00
43143;DHT22;28750;59.842;17.584;2023-03-04T00:41:46;-0.60;1.00
43143;DHT22;28750;59.842;17.584;2023-03-04T00:44:13;-0.60;1.00
43143;DHT22;28750;59.842;17.584;2023-03-04T00:46:39;-0.50;1.00
43143;DHT22;28750;59.842;17.584;2023-03-04T00:49:06;-0.60;1.00
43143;DHT22;28750;59.842;17.584;2023-03-04T00:51:33;-0.60;1.00
43143;DHT22;28750;59.842;17.584;2023-03-04T00:54:00;-0.60;1.00
43143;DHT22;28750;59.842;17.584;2023-03-04T00:56:27;-0.60;1.00
43143;DHT22;28750;59.842;17.584;2023-03-04T00:58:55;-0.60;1.00
43143;DHT22;28750;59.842;17.584;2023-03-04T01:01:21;-0.50;1.00
43143;DHT22;28750;59.842;17.584;2023-03-04T01:03:48;-0.60;1.00
43143;DHT22;28750;59.842;17.584;2023-03-04T01:06:15;-0.60;1.00
43143;DHT22;28750;59.842;17.584;2023-03-04T01:08:42;-0.80;1.00
43143;DHT22;28750;59.842;17.584;2023-03-04T01:11:09;-0.80;1.00
43143;DHT22;28750;59.842;17.584;2023-03-04T01:13:36;-0.70;1.00
43143;DHT22;28750;59.842;17.584;2023-03-04T01:16:04;-0.70;1.00
43143;DHT22;28750;59.842;17.584;2023-03-04T01:18:31;-0.70;1.00
43143;DHT22;28750;59.842;17.584;2023-03-04T01:20:58;-0.70;1.00
43143;DHT22;28750;59.842;17.584;2023-03-04T01:23:25;-0.80;1.00
43143;DHT22;28750;59.842;17.584;2023-03-04T01:25:52;-0.80;1.00
43143;DHT22;28750;59.842;17.584;2023-03-04T01:28:19;-0.80;1.00
43143;DHT22;28750;59.842;17.584;2023-03-04T01:30:46;-0.90;1.00
43143;DHT22;28750;59.842;17.584;2023-03-04T01:33:13;-0.80;1.00
43143;DHT22;28750;59.842;17.584;2023-03-04T01:35:40;-0.90;1.00
43143;DHT22;28750;59.842;17.584;2023-03-04T01:38:07;-0.90;1.00
43143;DHT22;28750;59.842;17.584;2023-03-04T01:40:34;-1.00;1.00
43143;DHT22;28750;59.842;17.584;2023-03-04T01:43:01;-0.80;1.00
43143;DHT22;28750;59.842;17.584;2023-03-04T01:45:28;-0.90;1.00
43143;DHT22;28750;59.842;17.584;2023-03-04T01:47:57;-1.00;1.00
43143;DHT22;28750;59.842;17.584;2023-03-04T01:50:33;-0.90;1.00
43143;DHT22;28750;59.842;17.584;2023-03-04T01:53:02;-0.90;1.00
43143;DHT22;28750;59.842;17.584;2023-03-04T01:55:30;-1.00;1.00
43143;DHT22;28750;59.842;17.584;2023-03-04T01:57:57;-1.00;1.00
43143;DHT22;28750;59.842;17.584;2023-03-04T02:02:54;-1.00;1.00
43143;DHT22;28750;59.842;17.584;2023-03-04T02:05:22;-1.00;99.90
43143;DHT22;28750;59.842;17.584;2023-03-04T02:07:50;-1.10;1.00
43143;DHT22;28750;59.842;17.584;2023-03-04T02:10:18;-1.10;1.00
43143;DHT22;28750;59.842;17.584;2023-03-04T02:12:45;-1.10;1.00
43143;DHT22;28750;59.842;17.584;2023-03-04T02:15:12;-1.10;99.90
43143;DHT22;28750;59.842;17.584;2023-03-04T02:17:39;-1.10;99.90
43143;DHT22;28750;59.842;17.584;2023-03-04T02:22:58;-1.00;99.90
43143;DHT22;28750;59.842;17.584;2023-03-04T02:25:42;-1.00;99.90
43143;DHT22;28750;59.842;17.584;2023-03-04T02:28:10;-1.00;99.90
43143;DHT22;28750;59.842;17.584;2023-03-04T02:30:38;-1.00;99.90
43143;DHT22;28750;59.842;17.584;2023-03-04T02:33:04;-1.00;99.90
43143;DHT22;28750;59.842;17.584;2023-03-04T02:35:31;-1.10;99.90
43143;DHT22;28750;59.842;17.584;2023-03-04T02:37:58;-1.10;99.90
43143;DHT22;28750;59.842;17.584;2023-03-04T02:40:32;-1.20;99.90
43143;DHT22;28750;59.842;17.584;2023-03-04T02:43:00;-1.30;99.90
43143;DHT22;28750;59.842;17.584;2023-03-04T02:48:04;-1.30;99.90
43143;DHT22;28750;59.842;17.584;2023-03-04T02:50:35;-1.30;99.90
43143;DHT22;28750;59.842;17.584;2023-03-04T02:53:04;-1.40;99.90
43143;DHT22;28750;59.842;17.584;2023-03-04T02:55:31;-1.50;99.90
43143;DHT22;28750;59.842;17.584;2023-03-04T02:57:59;-1.40;99.90
43143;DHT22;28750;59.842;17.584;2023-03-04T03:00:26;-1.40;99.90
43143;DHT22;28750;59.842;17.584;2023-03-04T03:02:54;-1.50;99.90
43143;DHT22;28750;59.842;17.584;2023-03-04T03:05:23;-1.60;99.90
43143;DHT22;28750;59.842;17.584;2023-03-04T03:07:51;-1.60;99.90
43143;DHT22;28750;59.842;17.584;2023-03-04T03:10:18;-1.60;99.90
43143;DHT22;28750;59.842;17.584;2023-03-04T03:12:45;-1.60;99.90
43143;DHT22;28750;59.842;17.584;2023-03-04T03:15:13;-1.70;99.90
43143;DHT22;28750;59.842;17.584;2023-03-04T03:17:40;-1.70;99.90
43143;DHT22;28750;59.842;17.584;2023-03-04T03:20:08;-1.70;99.90
43143;DHT22;28750;59.842;17.584;2023-03-04T03:22:35;-1.70;99.90
43143;DHT22;28750;59.842;17.584;2023-03-04T03:25:03;-1.80;99.90
43143;DHT22;28750;59.842;17.584;2023-03-04T03:27:30;-1.90;99.90
43143;DHT22;28750;59.842;17.584;2023-03-04T03:29:57;-1.80;99.90
43143;DHT22;28750;59.842;17.584;2023-03-04T03:32:25;-1.90;99.90
43143;DHT22;28750;59.842;17.584;2023-03-04T03:34:52;-1.90;99.90
43143;DHT22;28750;59.842;17.584;2023-03-04T03:37:19;-2.00;99.90
43143;DHT22;28750;59.842;17.584;2023-03-04T03:39:46;-1.90;99.90
43143;DHT22;28750;59.842;17.584;2023-03-04T03:42:13;-2.00;99.90
43143;DHT22;28750;59.842;17.584;2023-03-04T03:44:40;-2.10;99.90
43143;DHT22;28750;59.842;17.584;2023-03-04T03:47:07;-2.20;99.90
43143;DHT22;28750;59.842;17.584;2023-03-04T03:49:34;-2.20;99.90
43143;DHT22;28750;59.842;17.584;2023-03-04T03:52:01;-2.20;99.90
43143;DHT22;28750;59.842;17.584;2023-03-04T03:54:28;-2.20;99.90
43143;DHT22;28750;59.842;17.584;2023-03-04T03:56:54;-2.20;99.90
43143;DHT22;28750;59.842;17.584;2023-03-04T03:59:21;-2.20;99.90
43143;DHT22;28750;59.842;17.584;2023-03-04T04:01:49;-2.30;99.90
43143;DHT22;28750;59.842;17.584;2023-03-04T04:04:16;-2.30;99.90
43143;DHT22;28750;59.842;17.584;2023-03-04T04:06:43;-2.30;99.90
43143;DHT22;28750;59.842;17.584;2023-03-04T04:09:10;-2.40;99.90
43143;DHT22;28750;59.842;17.584;2023-03-04T04:11:37;-2.30;99.90
43143;DHT22;28750;59.842;17.584;2023-03-04T04:14:03;-2.40;99.90
43143;DHT22;28750;59.842;17.584;2023-03-04T04:16:30;-2.40;99.90
43143;DHT22;28750;59.842;17.584;2023-03-04T04:18:57;-2.40;99.90
43143;DHT22;28750;59.842;17.584;2023-03-04T04:21:24;-2.40;99.90
43143;DHT22;28750;59.842;17.584;2023-03-04T04:23:51;-2.40;99.90
43143;DHT22;28750;59.842;17.584;2023-03-04T04:26:18;-2.50;99.90
43143;DHT22;28750;59.842;17.584;2023-03-04T04:28:45;-2.60;99.90
43143;DHT22;28750;59.842;17.584;2023-03-04T04:31:11;-2.60;99.90
43143;DHT22;28750;59.842;17.584;2023-03-04T04:33:38;-2.50;99.90
43143;DHT22;28750;59.842;17.584;2023-03-04T04:36:05;-2.60;99.90
43143;DHT22;28750;59.842;17.584;2023-03-04T04:38:34;-2.70;99.90
43143;DHT22;28750;59.842;17.584;2023-03-04T04:41:02;-2.60;99.90
43143;DHT22;28750;59.842;17.584;2023-03-04T04:43:29;-2.60;99.90
43143;DHT22;28750;59.842;17.584;2023-03-04T04:45:58;-2.60;99.90
43143;DHT22;28750;59.842;17.584;2023-03-04T04:48:25;-2.70;99.90
43143;DHT22;28750;59.842;17.584;2023-03-04T04:50:54;-2.80;99.90
43143;DHT22;28750;59.842;17.584;2023-03-04T04:53:21;-2.80;99.90
43143;DHT22;28750;59.842;17.584;2023-03-04T04:55:48;-2.80;99.90
43143;DHT22;28750;59.842;17.584;2023-03-04T04:58:15;-2.70;99.90
43143;DHT22;28750;59.842;17.584;2023-03-04T05:00:42;-2.80;99.90
43143;DHT22;28750;59.842;17.584;2023-03-04T05:03:09;-2.90;99.90
43143;DHT22;28750;59.842;17.584;2023-03-04T05:05:36;-2.90;99.90
43143;DHT22;28750;59.842;17.584;2023-03-04T05:08:03;-2.80;99.90
43143;DHT22;28750;59.842;17.584;2023-03-04T05:10:30;-2.90;99.90
43143;DHT22;28750;59.842;17.584;2023-03-04T05:12:57;-2.90;99.90
43143;DHT22;28750;59.842;17.584;2023-03-04T05:15:24;-2.90;99.90
43143;DHT22;28750;59.842;17.584;2023-03-04T05:17:50;-2.90;99.90
43143;DHT22;28750;59.842;17.584;2023-03-04T05:20:17;-3.00;99.90
43143;DHT22;28750;59.842;17.584;2023-03-04T05:22:44;-3.00;99.90
43143;DHT22;28750;59.842;17.584;2023-03-04T05:25:11;-3.00;99.90
43143;DHT22;28750;59.842;17.584;2023-03-04T05:27:38;-3.00;99.90
43143;DHT22;28750;59.842;17.584;2023-03-04T05:30:06;-2.90;99.90
43143;DHT22;28750;59.842;17.584;2023-03-04T05:32:33;-2.90;99.90
43143;DHT22;28750;59.842;17.584;2023-03-04T05:35:00;-2.90;99.90
43143;DHT22;28750;59.842;17.584;2023-03-04T05:37:26;-2.90;99.90
43143;DHT22;28750;59.842;17.584;2023-03-04T05:39:53;-2.90;99.90
43143;DHT22;28750;59.842;17.584;2023-03-04T05:42:20;-3.00;99.90
43143;DHT22;28750;59.842;17.584;2023-03-04T05:44:47;-3.00;99.90
43143;DHT22;28750;59.842;17.584;2023-03-04T05:47:14;-2.90;99.90
43143;DHT22;28750;59.842;17.584;2023-03-04T05:49:41;-2.90;99.90
43143;DHT22;28750;59.842;17.584;2023-03-04T05:52:09;-3.00;99.90
43143;DHT22;28750;59.842;17.584;2023-03-04T05:54:36;-3.00;99.90
43143;DHT22;28750;59.842;17.584;2023-03-04T05:57:03;-3.10;99.90
43143;DHT22;28750;59.842;17.584;2023-03-04T05:59:30;-3.00;99.90
43143;DHT22;28750;59.842;17.584;2023-03-04T06:01:57;-3.00;99.90
43143;DHT22;28750;59.842;17.584;2023-03-04T06:04:24;-3.10;99.90
43143;DHT22;28750;59.842;17.584;2023-03-04T06:06:50;-3.10;99.90
43143;DHT22;28750;59.842;17.584;2023-03-04T06:09:17;-3.00;99.90
43143;DHT22;28750;59.842;17.584;2023-03-04T06:11:45;-3.00;99.90
43143;DHT22;28750;59.842;17.584;2023-03-04T06:14:12;-3.00;99.90
43143;DHT22;28750;59.842;17.584;2023-03-04T06:16:39;-3.00;99.90
43143;DHT22;28750;59.842;17.584;2023-03-04T06:19:06;-3.10;99.90
43143;DHT22;28750;59.842;17.584;2023-03-04T06:21:33;-3.10;99.90
43143;DHT22;28750;59.842;17.584;2023-03-04T06:24:00;-3.20;99.90
43143;DHT22;28750;59.842;17.584;2023-03-04T06:26:27;-3.10;99.90
43143;DHT22;28750;59.842;17.584;2023-03-04T06:28:54;-3.10;99.90
43143;DHT22;28750;59.842;17.584;2023-03-04T06:31:22;-3.10;99.90
43143;DHT22;28750;59.842;17.584;2023-03-04T06:33:49;-3.00;99.90
43143;DHT22;28750;59.842;17.584;2023-03-04T06:36:15;-3.00;99.90
43143;DHT22;28750;59.842;17.584;2023-03-04T06:38:42;-3.00;99.90
43143;DHT22;28750;59.842;17.584;2023-03-04T06:41:11;-3.10;99.90
43143;DHT22;28750;59.842;17.584;2023-03-04T06:43:38;-3.10;99.90
43143;DHT22;28750;59.842;17.584;2023-03-04T06:46:06;-3.00;99.90
43143;DHT22;28750;59.842;17.584;2023-03-04T06:48:33;-2.90;99.90
43143;DHT22;28750;59.842;17.584;2023-03-04T06:51:08;-2.80;99.90
43143;DHT22;28750;59.842;17.584;2023-03-04T06:53:36;-2.70;99.90
43143;DHT22;28750;59.842;17.584;2023-03-04T06:56:04;-2.60;99.90
43143;DHT22;28750;59.842;17.584;2023-03-04T06:58:31;-2.50;99.90
43143;DHT22;28750;59.842;17.584;2023-03-04T07:03:41;-2.30;99.90
43143;DHT22;28750;59.842;17.584;2023-03-04T07:06:10;-2.20;99.90
43143;DHT22;28750;59.842;17.584;2023-03-04T07:08:37;-2.20;99.90
43143;DHT22;28750;59.842;17.584;2023-03-04T07:11:04;-2.00;99.90
43143;DHT22;28750;59.842;17.584;2023-03-04T07:13:31;-2.10;99.90
43143;DHT22;28750;59.842;17.584;2023-03-04T07:16:00;-2.10;99.90
43143;DHT22;28750;59.842;17.584;2023-03-04T07:18:27;-2.20;99.90
43143;DHT22;28750;59.842;17.584;2023-03-04T07:20:54;-2.20;99.90
43143;DHT22;28750;59.842;17.584;2023-03-04T07:23:21;-2.20;99.90
43143;DHT22;28750;59.842;17.584;2023-03-04T07:25:48;-2.20;99.90
43143;DHT22;28750;59.842;17.584;2023-03-04T07:28:16;-2.20;99.90
43143;DHT22;28750;59.842;17.584;2023-03-04T07:30:43;-2.30;99.90
43143;DHT22;28750;59.842;17.584;2023-03-04T07:33:10;-2.30;99.90
43143;DHT22;28750;59.842;17.584;2023-03-04T07:35:37;-2.30;99.90
43143;DHT22;28750;59.842;17.584;2023-03-04T07:38:04;-2.30;99.90
43143;DHT22;28750;59.842;17.584;2023-03-04T07:40:31;-2.30;99.90
43143;DHT22;28750;59.842;17.584;2023-03-04T07:42:58;-2.00;99.90
43143;DHT22;28750;59.842;17.584;2023-03-04T07:45:26;-2.00;99.90
43143;DHT22;28750;59.842;17.584;2023-03-04T07:47:53;-2.00;99.90
43143;DHT22;28750;59.842;17.584;2023-03-04T07:50:20;-2.00;99.90
43143;DHT22;28750;59.842;17.584;2023-03-04T07:52:48;-1.80;99.90
43143;DHT22;28750;59.842;17.584;2023-03-04T07:55:17;-1.90;99.90
43143;DHT22;28750;59.842;17.584;2023-03-04T07:57:46;-1.80;99.90
43143;DHT22;28750;59.842;17.584;2023-03-04T08:00:15;-1.80;99.90
43143;DHT22;28750;59.842;17.584;2023-03-04T08:02:42;-1.80;99.90
43143;DHT22;28750;59.842;17.584;2023-03-04T08:05:09;-1.70;99.90
43143;DHT22;28750;59.842;17.584;2023-03-04T08:07:36;-1.60;99.90
43143;DHT22;28750;59.842;17.584;2023-03-04T08:10:04;-1.70;99.90
43143;DHT22;28750;59.842;17.584;2023-03-04T08:12:33;-1.60;99.90
43143;DHT22;28750;59.842;17.584;2023-03-04T08:15:00;-1.60;99.90
43143;DHT22;28750;59.842;17.584;2023-03-04T08:17:27;-1.60;99.90
43143;DHT22;28750;59.842;17.584;2023-03-04T08:19:54;-1.60;99.90
43143;DHT22;28750;59.842;17.584;2023-03-04T08:22:21;-1.40;99.90
43143;DHT22;28750;59.842;17.584;2023-03-04T08:24:48;-1.40;99.90
43143;DHT22;28750;59.842;17.584;2023-03-04T08:27:15;-1.40;99.90
43143;DHT22;28750;59.842;17.584;2023-03-04T08:29:42;-1.30;99.90
43143;DHT22;28750;59.842;17.584;2023-03-04T08:32:09;-1.40;99.90
43143;DHT22;28750;59.842;17.584;2023-03-04T08:34:38;-1.30;99.90
43143;DHT22;28750;59.842;17.584;2023-03-04T08:37:06;-1.30;99.90
43143;DHT22;28750;59.842;17.584;2023-03-04T08:39:33;-1.10;99.90
43143;DHT22;28750;59.842;17.584;2023-03-04T08:42:01;-1.20;99.90
43143;DHT22;28750;59.842;17.584;2023-03-04T08:44:28;-1.30;99.90
43143;DHT22;28750;59.842;17.584;2023-03-04T08:46:55;-1.20;99.90
43143;DHT22;28750;59.842;17.584;2023-03-04T08:49:22;-1.10;99.90
43143;DHT22;28750;59.842;17.584;2023-03-04T08:51:48;-1.10;99.90
43143;DHT22;28750;59.842;17.584;2023-03-04T08:54:15;-1.10;99.90
43143;DHT22;28750;59.842;17.584;2023-03-04T08:56:42;-1.00;99.90
43143;DHT22;28750;59.842;17.584;2023-03-04T08:59:09;-1.00;99.90
43143;DHT22;28750;59.842;17.584;2023-03-04T09:01:36;-0.80;99.90
43143;DHT22;28750;59.842;17.584;2023-03-04T09:04:04;-0.70;99.90
43143;DHT22;28750;59.842;17.584;2023-03-04T09:06:31;-0.50;99.90
43143;DHT22;28750;59.842;17.584;2023-03-04T09:08:58;-0.60;99.90
43143;DHT22;28750;59.842;17.584;2023-03-04T09:11:25;-0.60;99.90
43143;DHT22;28750;59.842;17.584;2023-03-04T09:13:52;-0.50;99.90
43143;DHT22;28750;59.842;17.584;2023-03-04T09:16:19;-0.30;99.90
43143;DHT22;28750;59.842;17.584;2023-03-04T09:18:46;0.00;1.00
43143;DHT22;28750;59.842;17.584;2023-03-04T09:21:13;-0.10;99.90
43143;DHT22;28750;59.842;17.584;2023-03-04T09:23:40;0.00;99.90
43143;DHT22;28750;59.842;17.584;2023-03-04T09:26:24;0.10;1.00
43143;DHT22;28750;59.842;17.584;2023-03-04T09:28:59;0.20;1.00
43143;DHT22;28750;59.842;17.584;2023-03-04T09:31:27;0.40;1.00
43143;DHT22;28750;59.842;17.584;2023-03-04T09:33:55;0.50;1.00
43143;DHT22;28750;59.842;17.584;2023-03-04T09:36:23;0.60;1.00
43143;DHT22;28750;59.842;17.584;2023-03-04T09:38:50;0.60;1.00
43143;DHT22;28750;59.842;17.584;2023-03-04T09:41:22;0.40;1.00
43143;DHT22;28750;59.842;17.584;2023-03-04T09:43:51;0.70;1.00
43143;DHT22;28750;59.842;17.584;2023-03-04T09:46:31;1.10;1.00
43143;DHT22;28750;59.842;17.584;2023-03-04T09:49:00;1.00;1.00
43143;DHT22;28750;59.842;17.584;2023-03-04T09:51:40;1.20;1.00
43143;DHT22;28750;59.842;17.584;2023-03-04T09:57:00;1.50;1.00
43143;DHT22;28750;59.842;17.584;2023-03-04T09:59:42;1.80;1.00
43143;DHT22;28750;59.842;17.584;2023-03-04T10:08:24;2.20;1.00
43143;DHT22;28750;59.842;17.584;2023-03-04T10:10:55;2.20;1.00
43143;DHT22;28750;59.842;17.584;2023-03-04T10:16:13;2.60;1.00
43143;DHT22;28750;59.842;17.584;2023-03-04T10:24:55;2.70;1.00
43143;DHT22;28750;59.842;17.584;2023-03-04T10:27:23;3.40;1.00
43143;DHT22;28750;59.842;17.584;2023-03-04T10:29:50;3.50;1.00
43143;DHT22;28750;59.842;17.584;2023-03-04T10:32:19;3.20;1.00
43143;DHT22;28750;59.842;17.584;2023-03-04T10:34:46;2.70;99.90
43143;DHT22;28750;59.842;17.584;2023-03-04T10:37:13;2.50;1.00
43143;DHT22;28750;59.842;17.584;2023-03-04T10:39:45;3.50;1.00
43143;DHT22;28750;59.842;17.584;2023-03-04T10:44:43;2.80;99.90
43143;DHT22;28750;59.842;17.584;2023-03-04T10:47:10;3.00;1.00
43143;DHT22;28750;59.842;17.584;2023-03-04T10:50:15;2.90;1.00
43143;DHT22;28750;59.842;17.584;2023-03-04T10:52:46;3.10;1.00
43143;DHT22;28750;59.842;17.584;2023-03-04T10:55:29;3.50;1.00
43143;DHT22;28750;59.842;17.584;2023-03-04T10:58:13;4.10;1.00
43143;DHT22;28750;59.842;17.584;2023-03-04T11:00:49;4.30;1.00
43143;DHT22;28750;59.842;17.584;2023-03-04T11:06:29;4.60;99.90
43143;DHT22;28750;59.842;17.584;2023-03-04T11:08:58;4.10;99.90
43143;DHT22;28750;59.842;17.584;2023-03-04T11:11:30;4.40;99.90
43143;DHT22;28750;59.842;17.584;2023-03-04T11:14:03;3.80;99.90
43143;DHT22;28750;59.842;17.584;2023-03-04T11:16:34;3.50;99.90
43143;DHT22;28750;59.842;17.584;2023-03-04T11:19:11;4.20;99.90
43143;DHT22;28750;59.842;17.584;2023-03-04T11:21:40;4.00;99.90
43143;DHT22;28750;59.842;17.584;2023-03-04T11:24:23;3.90;99.90
43143;DHT22;28750;59.842;17.584;2023-03-04T11:27:07;3.60;99.90
43143;DHT22;28750;59.842;17.584;2023-03-04T11:29:47;3.40;99.90
43143;DHT22;28750;59.842;17.584;2023-03-04T11:32:26;3.20;99.90
43143;DHT22;28750;59.842;17.584;2023-03-04T11:35:05;3.20;99.90
43143;DHT22;28750;59.842;17.584;2023-03-04T11:37:44;3.00;99.90
43143;DHT22;28750;59.842;17.584;2023-03-04T11:40:20;3.00;99.90
43143;DHT22;28750;59.842;17.584;2023-03-04T11:43:05;2.90;99.90
43143;DHT22;28750;59.842;17.584;2023-03-04T11:48:28;2.90;99.90
43143;DHT22;28750;59.842;17.584;2023-03-04T12:07:11;2.20;1.00
43143;DHT22;28750;59.842;17.584;2023-03-04T12:12:45;2.20;1.00
43143;DHT22;28750;59.842;17.584;2023-03-04T12:15:38;2.30;1.00
43143;DHT22;28750;59.842;17.584;2023-03-04T12:18:26;2.40;1.00
43143;DHT22;28750;59.842;17.584;2023-03-04T12:27:03;2.00;1.00
43143;DHT22;28750;59.842;17.584;2023-03-04T12:29:55;2.10;1.00
43143;DHT22;28750;59.842;17.584;2023-03-04T12:32:39;2.10;31.40
43143;DHT22;28750;59.842;17.584;2023-03-04T12:46:44;2.00;99.90
43143;DHT22;28750;59.842;17.584;2023-03-04T12:52:08;2.00;1.00
43143;DHT22;28750;59.842;17.584;2023-03-04T12:54:51;1.70;62.20
43143;DHT22;28750;59.842;17.584;2023-03-04T12:57:25;1.40;99.90
43143;DHT22;28750;59.842;17.584;2023-03-04T13:00:08;1.30;99.90
43143;DHT22;28750;59.842;17.584;2023-03-04T13:06:15;1.20;99.90
43143;DHT22;28750;59.842;17.584;2023-03-04T13:09:04;1.40;99.90
43143;DHT22;28750;59.842;17.584;2023-03-04T13:11:42;1.20;99.90
43143;DHT22;28750;59.842;17.584;2023-03-04T13:16:41;1.70;99.90
43143;DHT22;28750;59.842;17.584;2023-03-04T13:19:47;1.70;99.90
43143;DHT22;28750;59.842;17.584;2023-03-04T13:41:21;1.50;50.70
43143;DHT22;28750;59.842;17.584;2023-03-04T13:43:53;1.50;10.00
43143;DHT22;28750;59.842;17.584;2023-03-04T13:51:39;1.70;1.00
43143;DHT22;28750;59.842;17.584;2023-03-04T13:54:28;1.80;1.00
43143;DHT22;28750;59.842;17.584;2023-03-04T13:57:31;1.80;1.00
43143;DHT22;28750;59.842;17.584;2023-03-04T14:00:02;2.00;99.90
43143;DHT22;28750;59.842;17.584;2023-03-04T14:02:33;2.00;99.90
43143;DHT22;28750;59.842;17.584;2023-03-04T14:05:01;1.90;99.90
43143;DHT22;28750;59.842;17.584;2023-03-04T14:07:32;2.00;99.90
43143;DHT22;28750;59.842;17.584;2023-03-04T14:12:45;1.90;99.90
43143;DHT22;28750;59.842;17.584;2023-03-04T14:17:45;2.00;99.90
43143;DHT22;28750;59.842;17.584;2023-03-04T14:23:03;2.10;99.90
43143;DHT22;28750;59.842;17.584;2023-03-04T14:25:34;2.20;98.60
43143;DHT22;28750;59.842;17.584;2023-03-04T14:28:15;2.30;86.10
43143;DHT22;28750;59.842;17.584;2023-03-04T14:30:42;2.40;26.30
43143;DHT22;28750;59.842;17.584;2023-03-04T14:33:20;2.30;17.30
43143;DHT22;28750;59.842;17.584;2023-03-04T14:35:50;2.30;1.00
43143;DHT22;28750;59.842;17.584;2023-03-04T14:38:23;2.40;1.00
43143;DHT22;28750;59.842;17.584;2023-03-04T14:41:01;2.40;1.00
43143;DHT22;28750;59.842;17.584;2023-03-04T14:43:59;2.30;1.00
43143;DHT22;28750;59.842;17.584;2023-03-04T14:46:24;2.30;1.00
43143;DHT22;28750;59.842;17.584;2023-03-04T14:48:53;2.40;1.00
43143;DHT22;28750;59.842;17.584;2023-03-04T14:51:51;2.40;1.00
43143;DHT22;28750;59.842;17.584;2023-03-04T14:56:53;2.40;1.00
43143;DHT22;28750;59.842;17.584;2023-03-04T14:59:28;2.20;1.00
43143;DHT22;28750;59.842;17.584;2023-03-04T15:02:17;2.10;1.00
43143;DHT22;28750;59.842;17.584;2023-03-04T15:04:48;2.10;99.90
43143;DHT22;28750;59.842;17.584;2023-03-04T15:07:16;2.10;99.90
43143;DHT22;28750;59.842;17.584;2023-03-04T15:09:55;2.00;99.90
43143;DHT22;28750;59.842;17.584;2023-03-04T15:12:28;1.90;99.90
43143;DHT22;28750;59.842;17.584;2023-03-04T15:14:58;1.90;99.90
43143;DHT22;28750;59.842;17.584;2023-03-04T15:22:57;1.90;99.90
43143;DHT22;28750;59.842;17.584;2023-03-04T15:25:24;1.90;99.90
43143;DHT22;28750;59.842;17.584;2023-03-04T15:27:51;1.80;99.90
43143;DHT22;28750;59.842;17.584;2023-03-04T15:30:22;1.80;99.90
43143;DHT22;28750;59.842;17.584;2023-03-04T15:32:53;1.90;99.90
43143;DHT22;28750;59.842;17.584;2023-03-04T15:35:21;2.00;99.90
43143;DHT22;28750;59.842;17.584;2023-03-04T15:37:50;2.10;99.90
43143;DHT22;28750;59.842;17.584;2023-03-04T15:40:39;2.20;99.90
43143;DHT22;28750;59.842;17.584;2023-03-04T15:43:12;2.10;99.90
43143;DHT22;28750;59.842;17.584;2023-03-04T15:45:40;2.10;99.90
43143;DHT22;28750;59.842;17.584;2023-03-04T15:48:10;2.10;99.90
43143;DHT22;28750;59.842;17.584;2023-03-04T15:50:40;2.10;99.90
43143;DHT22;28750;59.842;17.584;2023-03-04T15:53:18;2.10;99.90
43143;DHT22;28750;59.842;17.584;2023-03-04T15:55:46;2.00;99.90
43143;DHT22;28750;59.842;17.584;2023-03-04T15:58:14;2.00;99.90
43143;DHT22;28750;59.842;17.584;2023-03-04T16:00:42;2.00;99.90
43143;DHT22;28750;59.842;17.584;2023-03-04T16:03:19;2.00;99.90
43143;DHT22;28750;59.842;17.584;2023-03-04T16:05:48;1.90;99.90
43143;DHT22;28750;59.842;17.584;2023-03-04T16:08:19;1.90;99.90
43143;DHT22;28750;59.842;17.584;2023-03-04T16:10:47;1.80;99.90
43143;DHT22;28750;59.842;17.584;2023-03-04T16:13:16;1.80;99.90
43143;DHT22;28750;59.842;17.584;2023-03-04T16:15:43;1.70;99.90
43143;DHT22;28750;59.842;17.584;2023-03-04T16:18:13;1.60;99.90
43143;DHT22;28750;59.842;17.584;2023-03-04T16:20:43;1.50;99.90
43143;DHT22;28750;59.842;17.584;2023-03-04T16:23:14;1.60;99.90
43143;DHT22;28750;59.842;17.584;2023-03-04T16:25:46;1.50;99.90
43143;DHT22;28750;59.842;17.584;2023-03-04T16:28:14;1.50;99.90
43143;DHT22;28750;59.842;17.584;2023-03-04T16:30:41;1.40;99.90
43143;DHT22;28750;59.842;17.584;2023-03-04T16:33:08;1.30;99.90
43143;DHT22;28750;59.842;17.584;2023-03-04T16:35:38;1.30;99.90
43143;DHT22;28750;59.842;17.584;2023-03-04T16:38:16;1.20;99.90
43143;DHT22;28750;59.842;17.584;2023-03-04T16:40:44;1.10;99.90
43143;DHT22;28750;59.842;17.584;2023-03-04T16:43:12;1.10;99.90
43143;DHT22;28750;59.842;17.584;2023-03-04T16:45:40;0.90;99.90
43143;DHT22;28750;59.842;17.584;2023-03-04T16:48:07;0.90;99.90
43143;DHT22;28750;59.842;17.584;2023-03-04T16:50:35;0.90;99.90
43143;DHT22;28750;59.842;17.584;2023-03-04T16:53:04;0.80;99.90
43143;DHT22;28750;59.842;17.584;2023-03-04T16:55:31;0.70;99.90
43143;DHT22;28750;59.842;17.584;2023-03-04T16:57:58;0.70;99.90
43143;DHT22;28750;59.842;17.584;2023-03-04T17:00:27;0.70;99.90
43143;DHT22;28750;59.842;17.584;2023-03-04T17:02:58;0.60;99.90
43143;DHT22;28750;59.842;17.584;2023-03-04T17:05:29;0.60;99.90
43143;DHT22;28750;59.842;17.584;2023-03-04T17:07:56;0.60;99.90
43143;DHT22;28750;59.842;17.584;2023-03-04T17:10:24;0.50;99.90
43143;DHT22;28750;59.842;17.584;2023-03-04T17:12:52;0.40;99.90
43143;DHT22;28750;59.842;17.584;2023-03-04T17:15:19;0.30;99.90
43143;DHT22;28750;59.842;17.584;2023-03-04T17:17:46;0.40;99.90
43143;DHT22;28750;59.842;17.584;2023-03-04T17:20:16;0.30;99.90
43143;DHT22;28750;59.842;17.584;2023-03-04T17:22:44;0.30;99.90
43143;DHT22;28750;59.842;17.584;2023-03-04T17:25:11;0.30;99.90
43143;DHT22;28750;59.842;17.584;2023-03-04T17:27:39;0.10;99.90
43143;DHT22;28750;59.842;17.584;2023-03-04T17:30:07;0.20;99.90
43143;DHT22;28750;59.842;17.584;2023-03-04T17:32:34;0.10;99.90
43143;DHT22;28750;59.842;17.584;2023-03-04T17:35:01;0.00;99.90
43143;DHT22;28750;59.842;17.584;2023-03-04T17:37:30;-0.10;99.90
43143;DHT22;28750;59.842;17.584;2023-03-04T17:39:57;-0.10;99.90
43143;DHT22;28750;59.842;17.584;2023-03-04T17:42:24;-0.10;99.90